Santa Fe, NM

01:16 MDT le 18 avril 2015 (GMT -0600)
Casa Solana | | Change Station
CLOSE
Current Station
Stations météorologiques personnelles
Location: Santa Fe, NM
Altitude: 6930 ft
Stations météo à proximité

Alt. 6930 ft 35.69 °N, 105.96 °W | Updated 3 minutes ago

Neige
Neige
32.2 ° F
Paraît 32 ° F
N
0.0
Vent Variable Vent de ENE
Gusts 0.0 mph

Aujourd'hui
Haut(e) -- | Bas -- ° F
--% Risque de précip.
Hier
Haut(e) -- | Bas -- ° F
Precip. -- pouce
6:27 AM 7:39 PM
Lune descendante, 0% visible
Pression 30.05 pouce
Visibilité 1.5 Miles terrestres
Nuages Peu 300 ft
Couvert 1000 ft
Refroidissement éolien 32 ° F
Point de rosée 30 ° F
Humidité 91%
Précipitations pouce
Profondeur de la couche neigeuse Non disponible.
UV 0 sur 12
Pollen 9.60 sur 12
Qualité de l'air Non disponible.
Flu Activity Local Activity
SPECI KSAF 180701Z AUTO 09007KT 1 1/2SM -SN BR FEW003 OVC010 00/M01 A3005 RMK AO2 P0000 T00001006

More Conditions Fewer Conditions

Pression 30.05 pouce
Visibilité 1.5 Miles terrestres
Nuages Peu 300 ft
Couvert 1000 ft
Refroidissement éolien 32 ° F
Point de rosée 30 ° F
Humidité 91%
Précipitations pouce
Profondeur de la couche neigeuse Non disponible.
UV 0 sur 12
Pollen 9.60 sur 12
Qualité de l'air Non disponible.
Flu Activity Local Activity
SPECI KSAF 180701Z AUTO 09007KT 1 1/2SM -SN BR FEW003 OVC010 00/M01 A3005 RMK AO2 P0000 T00001006

More Conditions Fewer Conditions

Nowcast | as of 11:30 PM MDT on April 17, 2015

Isolated rain and mountain snow showers will continue to develop over northern New Mexico overnight. Accumulating snow should be confined to elevations above 8000 feet...but will lower to 6500 feet toward morning. An inch or two of snow may accumulate on the higher mountain peaks through 3 am. Rain showers at lower elevations will generally produce amounts under a tenth of an inch.

×

10-Day Weather Forecast

Almanac

Astronomie

Apr. 18, 2015 Lever Coucher
Temps réel
Crépuscule civil
Crépuscule nautique
Crépuscule astronomique
Lune
Durée de lumière visible
Longueur du jour
Tomorrow will be .
, % of the Moon is Illuminated

Extrêmes aujourd'hui

State Highs State Lows

Community

WunderPhotos

Upload Photos

1,814,341 Photos téléchargées !

WunderBlogs® & News

Nearby

Qualité de l'air

  Qualité de l'air Indice de la qualité de l'air Polluant
Not available.

Épaisseur de neige

Station Depth Altitude

Activité sismique

Ville Distance Mag. Time & Date
Minimum magnitude displayed is 2.5.

Températures des eaux côtières

Lieu Température

Stations

Stations météo à proximité

Emplacement de la station Température Refroidissement éolien Point de rosée Humidité Vent Precip. Alt. Mise à jour Type